createdAt,value
2022-09-07T00:00:58.479Z,16.00
2022-09-07T00:03:25.469Z,16.04
2022-09-07T00:05:52.553Z,15.78
2022-09-07T00:08:22.181Z,15.71
2022-09-07T00:11:02.714Z,15.84
2022-09-07T00:13:32.127Z,15.98
2022-09-07T00:15:59.501Z,16.04
2022-09-07T00:18:26.047Z,15.94
2022-09-07T00:21:04.766Z,16.21
2022-09-07T00:23:32.255Z,16.18
2022-09-07T00:26:03.471Z,16.02
2022-09-07T00:28:30.610Z,15.86
2022-09-07T00:30:57.377Z,16.17
2022-09-07T00:33:23.889Z,16.19
2022-09-07T00:35:50.353Z,16.33
2022-09-07T00:38:16.971Z,16.25
2022-09-07T00:40:43.688Z,16.40
2022-09-07T00:43:16.938Z,16.42
2022-09-07T00:45:43.844Z,16.40
2022-09-07T00:48:17.080Z,16.51
2022-09-07T00:50:52.133Z,16.40
2022-09-07T00:53:31.028Z,16.51
2022-09-07T00:55:58.843Z,16.69
2022-09-07T00:58:26.022Z,16.69
2022-09-07T01:00:52.499Z,16.78
2022-09-07T01:03:30.940Z,16.73
2022-09-07T01:06:06.420Z,16.82
2022-09-07T01:08:34.138Z,16.84
2022-09-07T01:11:01.075Z,16.78
2022-09-07T01:13:27.797Z,16.94
2022-09-07T01:16:03.285Z,17.07
2022-09-07T01:18:35.801Z,17.03
2022-09-07T01:21:34.571Z,17.05
2022-09-07T01:24:22.418Z,17.07
2022-09-07T01:27:06.580Z,16.94
2022-09-07T01:29:48.744Z,17.17
2022-09-07T01:32:34.685Z,17.12
2022-09-07T01:35:03.350Z,17.20
2022-09-07T01:38:08.587Z,17.05
2022-09-07T01:40:48.208Z,16.95
2022-09-07T01:43:54.123Z,17.22
2022-09-07T01:46:28.890Z,17.15
2022-09-07T01:49:03.194Z,17.04
2022-09-07T01:51:34.396Z,17.22
2022-09-07T01:54:19.027Z,17.17
2022-09-07T01:56:49.234Z,17.15
2022-09-07T01:59:28.493Z,17.43
2022-09-07T02:02:03.390Z,17.54
2022-09-07T02:04:45.281Z,17.56
2022-09-07T02:07:24.451Z,17.53
2022-09-07T02:09:56.785Z,17.55
2022-09-07T02:12:47.580Z,17.49
2022-09-07T02:15:28.712Z,17.54
2022-09-07T02:18:04.603Z,17.59
2022-09-07T02:20:39.423Z,17.51
2022-09-07T02:23:19.189Z,17.60
2022-09-07T02:25:52.361Z,16.82
2022-09-07T02:28:25.918Z,17.17
2022-09-07T02:30:52.474Z,17.11
2022-09-07T02:33:18.969Z,17.38
2022-09-07T02:35:45.874Z,17.38
2022-09-07T02:38:12.422Z,17.06
2022-09-07T02:40:38.954Z,17.16
2022-09-07T02:43:16.723Z,17.19
2022-09-07T02:45:58.191Z,17.48
2022-09-07T02:48:45.091Z,17.19
2022-09-07T02:51:35.421Z,17.38
2022-09-07T02:54:24.877Z,17.33
2022-09-07T02:57:05.477Z,17.19
2022-09-07T02:59:59.794Z,17.24
2022-09-07T03:02:35.224Z,17.05
2022-09-07T03:05:11.853Z,16.99
2022-09-07T03:07:45.197Z,16.79
2022-09-07T03:10:13.297Z,16.96
2022-09-07T03:12:42.134Z,16.93
2022-09-07T03:15:11.517Z,16.84
2022-09-07T03:17:41.150Z,16.73
2022-09-07T03:20:08.410Z,16.75
2022-09-07T03:22:34.904Z,16.47
2022-09-07T03:25:01.859Z,16.30
2022-09-07T03:27:28.638Z,16.24
2022-09-07T03:29:55.102Z,16.18
2022-09-07T03:32:21.491Z,16.27
2022-09-07T03:34:48.539Z,15.93
2022-09-07T03:37:15.177Z,15.98
2022-09-07T03:39:41.642Z,15.89
2022-09-07T03:42:08.251Z,15.92
2022-09-07T03:44:34.686Z,15.86
2022-09-07T03:47:01.147Z,15.72
2022-09-07T03:49:27.558Z,15.64
2022-09-07T03:51:53.969Z,16.00
2022-09-07T03:54:20.377Z,15.92
2022-09-07T03:56:46.775Z,15.79
2022-09-07T03:59:13.182Z,15.66
2022-09-07T04:01:40.084Z,15.83
2022-09-07T04:04:06.632Z,15.72
2022-09-07T04:06:33.190Z,15.74
2022-09-07T04:09:08.847Z,15.81
2022-09-07T04:11:35.735Z,15.69
2022-09-07T04:14:02.246Z,15.65
2022-09-07T04:16:29.086Z,15.75
2022-09-07T04:18:56.074Z,15.48
2022-09-07T04:21:23.918Z,15.46
2022-09-07T04:23:50.627Z,15.02
2022-09-07T04:26:22.519Z,15.41
2022-09-07T04:28:49.990Z,15.19
2022-09-07T04:31:18.652Z,15.38
2022-09-07T04:33:46.741Z,15.32
2022-09-07T04:36:13.449Z,15.08
2022-09-07T04:38:40.202Z,15.56
2022-09-07T04:41:09.858Z,15.49
2022-09-07T04:43:38.765Z,15.75
2022-09-07T04:46:14.074Z,15.69
2022-09-07T04:48:52.572Z,15.47
2022-09-07T04:51:20.118Z,15.53
2022-09-07T04:53:49.540Z,15.33
2022-09-07T04:56:17.160Z,15.43
2022-09-07T04:58:44.084Z,15.34
2022-09-07T05:01:12.338Z,15.42
2022-09-07T05:03:38.851Z,15.24
2022-09-07T05:06:06.644Z,15.44
2022-09-07T05:08:37.985Z,15.55
2022-09-07T05:11:04.656Z,15.51
2022-09-07T05:13:31.834Z,15.34
2022-09-07T05:15:59.825Z,15.47
2022-09-07T05:18:26.938Z,15.52
2022-09-07T05:20:53.473Z,15.53
2022-09-07T05:23:19.929Z,15.25
2022-09-07T05:25:47.062Z,15.30
2022-09-07T05:28:18.635Z,15.36
2022-09-07T05:36:20.566Z,15.37
2022-09-07T05:38:47.211Z,15.55
2022-09-07T05:41:19.303Z,15.46
2022-09-07T05:46:33.088Z,15.70
2022-09-07T05:49:00.664Z,15.82
2022-09-07T05:51:27.064Z,15.78
2022-09-07T05:53:53.645Z,15.95
2022-09-07T05:56:20.038Z,16.06
2022-09-07T05:58:49.501Z,16.61
2022-09-07T06:01:16.394Z,16.57
2022-09-07T06:03:44.434Z,16.83
2022-09-07T06:06:13.125Z,16.92
2022-09-07T06:08:44.371Z,17.25
2022-09-07T06:11:13.550Z,17.30
2022-09-07T06:13:40.545Z,17.60
2022-09-07T06:16:08.396Z,17.73
2022-09-07T06:18:36.680Z,17.96
2022-09-07T06:21:14.968Z,18.07
2022-09-07T06:23:42.682Z,18.11
2022-09-07T06:26:10.317Z,18.05
2022-09-07T06:28:39.510Z,18.20
2022-09-07T06:31:13.534Z,18.45
2022-09-07T06:33:44.650Z,18.02
2022-09-07T06:36:13.368Z,17.86
2022-09-07T06:38:40.507Z,17.79
2022-09-07T06:44:00.477Z,17.88
2022-09-07T06:49:13.383Z,17.84
2022-09-07T06:51:39.815Z,17.98
2022-09-07T06:56:52.744Z,17.82
2022-09-07T06:59:19.329Z,17.74
2022-09-07T07:01:45.814Z,18.13
2022-09-07T07:04:13.157Z,18.07
2022-09-07T07:06:40.355Z,18.09
2022-09-07T07:09:08.432Z,17.88
2022-09-07T07:11:37.151Z,18.22
2022-09-07T07:14:04.418Z,18.39
2022-09-07T07:16:31.248Z,18.39
2022-09-07T07:18:58.080Z,18.07
2022-09-07T07:21:24.541Z,17.81
2022-09-07T07:23:52.848Z,17.67
2022-09-07T07:26:22.937Z,17.99
2022-09-07T07:31:30.243Z,17.62
2022-09-07T07:33:56.909Z,17.76
2022-09-07T07:36:33.724Z,17.73
2022-09-07T07:39:01.335Z,17.74
2022-09-07T07:44:20.948Z,17.55
2022-09-07T07:47:00.446Z,17.62
2022-09-07T07:49:26.863Z,17.45
2022-09-07T07:54:43.421Z,17.81
2022-09-07T07:57:10.343Z,17.91
2022-09-07T07:59:36.892Z,17.67
2022-09-07T08:02:05.177Z,18.10
2022-09-07T08:04:33.229Z,17.92
2022-09-07T08:07:09.607Z,18.33
2022-09-07T08:09:44.418Z,18.01
2022-09-07T08:12:13.559Z,18.12
2022-09-07T08:14:43.281Z,18.72
2022-09-07T08:17:11.882Z,18.98
2022-09-07T08:19:40.385Z,19.20
2022-09-07T08:22:07.785Z,19.53
2022-09-07T08:24:34.636Z,19.53
2022-09-07T08:27:01.270Z,19.74
2022-09-07T08:29:31.292Z,20.12
2022-09-07T08:32:00.225Z,19.92
2022-09-07T08:34:28.676Z,19.83
2022-09-07T08:36:55.029Z,20.06
2022-09-07T08:39:22.548Z,20.28
2022-09-07T08:41:51.598Z,20.54
2022-09-07T08:44:33.231Z,20.80
2022-09-07T08:47:12.507Z,20.78
2022-09-07T08:49:53.745Z,20.77
2022-09-07T08:52:25.740Z,20.88
2022-09-07T08:55:23.238Z,20.97
2022-09-07T08:57:56.970Z,21.05
2022-09-07T09:00:25.398Z,21.11
2022-09-07T09:06:08.074Z,21.07
2022-09-07T09:08:49.055Z,21.19
2022-09-07T09:11:39.196Z,21.30
2022-09-07T09:14:39.406Z,21.58
2022-09-07T09:17:38.214Z,21.84
2022-09-07T09:20:30.887Z,21.85
2022-09-07T09:23:02.722Z,21.67
2022-09-07T09:25:36.594Z,21.72
2022-09-07T09:28:03.281Z,21.86
2022-09-07T09:30:29.775Z,21.64
2022-09-07T09:33:19.886Z,21.78
2022-09-07T09:36:00.475Z,21.64
2022-09-07T09:38:35.332Z,21.46
2022-09-07T09:41:14.959Z,21.43
2022-09-07T09:43:53.688Z,21.34
2022-09-07T09:46:28.052Z,21.71
2022-09-07T09:49:26.446Z,22.00
2022-09-07T09:54:44.897Z,22.02
2022-09-07T10:06:19.710Z,22.07
2022-09-07T10:09:02.129Z,22.22
2022-09-07T10:14:37.128Z,22.55
2022-09-07T10:17:22.974Z,22.66
2022-09-07T10:19:49.735Z,22.87
2022-09-07T10:22:36.480Z,22.69
2022-09-07T10:25:24.932Z,23.25
2022-09-07T10:28:15.644Z,23.43
2022-09-07T10:31:16.709Z,23.46
2022-09-07T10:34:26.654Z,23.35
2022-09-07T10:37:04.770Z,23.40
2022-09-07T10:39:41.717Z,23.20
2022-09-07T10:42:32.004Z,23.20
2022-09-07T10:45:11.871Z,23.12
2022-09-07T10:48:03.865Z,23.48
2022-09-07T10:50:45.751Z,23.45
2022-09-07T10:54:30.126Z,23.44
2022-09-07T10:56:59.306Z,23.72
2022-09-07T11:02:40.605Z,24.18
2022-09-07T11:05:37.104Z,23.94
2022-09-07T11:09:15.101Z,24.11
2022-09-07T11:12:02.271Z,24.28
2022-09-07T11:14:38.093Z,24.22
2022-09-07T11:17:14.568Z,24.34
2022-09-07T11:20:17.608Z,24.56
2022-09-07T11:22:54.926Z,23.99
2022-09-07T11:26:18.673Z,24.60
2022-09-07T11:31:47.521Z,23.82
2022-09-07T11:34:24.612Z,25.05
2022-09-07T11:37:07.161Z,25.12
2022-09-07T11:39:43.766Z,24.98
2022-09-07T11:45:05.086Z,25.30
2022-09-07T11:47:44.158Z,24.66
2022-09-07T11:50:21.110Z,24.66
2022-09-07T11:52:54.905Z,24.84
2022-09-07T11:55:28.713Z,25.26
2022-09-07T11:58:07.200Z,25.52
2022-09-07T12:00:48.330Z,25.08
2022-09-07T12:03:47.062Z,25.62
2022-09-07T12:06:19.584Z,25.50
2022-09-07T12:09:07.456Z,25.67
2022-09-07T12:12:13.147Z,25.73
2022-09-07T12:15:10.766Z,25.80
2022-09-07T12:17:41.910Z,25.47
2022-09-07T12:20:15.124Z,25.85
2022-09-07T12:23:06.570Z,25.93
2022-09-07T12:25:34.741Z,26.04
2022-09-07T12:28:01.790Z,25.92
2022-09-07T12:30:30.105Z,26.13
2022-09-07T12:32:57.994Z,25.94
2022-09-07T12:35:33.953Z,25.99
2022-09-07T12:38:18.592Z,25.69
2022-09-07T12:40:59.132Z,25.98
2022-09-07T12:43:28.448Z,26.33
2022-09-07T12:45:56.651Z,26.05
2022-09-07T12:49:08.298Z,26.02
2022-09-07T12:54:45.200Z,26.57
2022-09-07T12:57:31.152Z,26.13
2022-09-07T13:00:17.798Z,26.24
2022-09-07T13:02:47.120Z,26.21
2022-09-07T13:05:36.654Z,26.03
2022-09-07T13:08:36.228Z,26.36
2022-09-07T13:11:37.508Z,26.17
2022-09-07T13:14:23.328Z,25.70
2022-09-07T13:17:28.878Z,25.82
2022-09-07T13:20:17.053Z,26.07
2022-09-07T13:23:17.470Z,25.33
2022-09-07T13:25:47.335Z,25.34
2022-09-07T13:28:37.397Z,25.66
2022-09-07T13:31:21.838Z,25.91
2022-09-07T13:33:51.184Z,25.66
2022-09-07T13:36:44.628Z,25.90
2022-09-07T13:39:15.909Z,26.20
2022-09-07T13:41:51.256Z,26.19
2022-09-07T13:44:26.164Z,25.14
2022-09-07T13:47:14.166Z,25.98
2022-09-07T13:50:00.206Z,26.07
2022-09-07T13:52:40.854Z,26.10
2022-09-07T13:55:26.236Z,25.76
2022-09-07T13:58:02.540Z,26.14
2022-09-07T14:00:31.155Z,25.36
2022-09-07T14:03:04.542Z,25.91
2022-09-07T14:05:36.218Z,25.13
2022-09-07T14:08:04.780Z,25.63
2022-09-07T14:10:31.270Z,25.99
2022-09-07T14:13:11.658Z,26.16
2022-09-07T14:15:46.550Z,25.97
2022-09-07T14:18:16.295Z,25.80
2022-09-07T14:20:50.775Z,26.26
2022-09-07T14:23:32.707Z,26.17
2022-09-07T14:26:20.457Z,26.41
2022-09-07T14:28:50.486Z,25.93
2022-09-07T14:31:20.253Z,25.94
2022-09-07T14:33:59.351Z,25.98
2022-09-07T14:36:45.675Z,25.77
2022-09-07T14:39:18.960Z,25.88
2022-09-07T14:41:53.777Z,25.56
2022-09-07T14:44:31.699Z,25.61
2022-09-07T14:47:02.835Z,25.78
2022-09-07T14:49:37.595Z,25.70
2022-09-07T14:52:05.455Z,25.20
2022-09-07T14:54:34.223Z,24.90
2022-09-07T14:57:11.235Z,25.14
2022-09-07T14:59:48.438Z,25.18
2022-09-07T15:02:18.051Z,26.09
2022-09-07T15:05:08.926Z,25.43
2022-09-07T15:07:39.181Z,25.69
2022-09-07T15:10:25.534Z,25.78
2022-09-07T15:13:00.140Z,26.04
2022-09-07T15:15:39.553Z,26.35
2022-09-07T15:18:44.385Z,26.06
2022-09-07T15:21:13.017Z,26.16
2022-09-07T15:23:42.532Z,25.91
2022-09-07T15:27:01.964Z,26.31
2022-09-07T15:29:15.246Z,26.01
2022-09-07T15:31:47.279Z,25.21
2022-09-07T15:34:19.445Z,25.29
2022-09-07T15:37:00.282Z,25.02
2022-09-07T15:39:30.205Z,24.93
2022-09-07T15:41:57.824Z,24.78
2022-09-07T15:44:27.897Z,24.70
2022-09-07T15:49:51.335Z,25.00
2022-09-07T15:52:18.142Z,25.11
2022-09-07T15:54:44.650Z,25.19
2022-09-07T15:59:58.637Z,25.04
2022-09-07T16:05:11.775Z,25.08
2022-09-07T16:10:25.777Z,24.99
2022-09-07T16:15:45.262Z,24.78
2022-09-07T16:18:16.502Z,24.65
2022-09-07T16:20:47.949Z,24.68
2022-09-07T16:23:18.644Z,24.69
2022-09-07T16:25:57.046Z,24.85
2022-09-07T16:28:23.886Z,24.89
2022-09-07T16:30:50.297Z,24.88
2022-09-07T16:33:16.875Z,24.72
2022-09-07T16:35:43.356Z,24.87
2022-09-07T16:40:56.278Z,24.72
2022-09-07T16:43:22.959Z,24.56
2022-09-07T16:46:05.164Z,24.04
2022-09-07T16:48:33.161Z,23.68
2022-09-07T16:51:02.650Z,23.70
2022-09-07T16:53:31.778Z,23.57
2022-09-07T16:56:08.153Z,23.56
2022-09-07T16:58:47.662Z,23.46
2022-09-07T17:01:17.385Z,23.27
2022-09-07T17:03:44.748Z,23.26
2022-09-07T17:06:14.627Z,23.14
2022-09-07T17:08:42.261Z,22.91
2022-09-07T17:11:14.766Z,22.59
2022-09-07T17:13:42.248Z,22.40
2022-09-07T17:16:11.639Z,22.22
2022-09-07T17:21:31.240Z,22.08
2022-09-07T17:23:59.436Z,21.90
2022-09-07T17:26:27.536Z,21.98
2022-09-07T17:28:56.637Z,21.61
2022-09-07T17:34:19.138Z,21.27
2022-09-07T17:36:45.617Z,21.06
2022-09-07T17:39:17.230Z,20.83
2022-09-07T17:41:44.963Z,20.87
2022-09-07T17:44:11.612Z,20.76
2022-09-07T17:46:39.416Z,20.93
2022-09-07T17:49:08.041Z,19.41
2022-09-07T17:51:35.752Z,20.50
2022-09-07T17:54:09.569Z,20.09
2022-09-07T17:56:37.369Z,20.58
2022-09-07T18:01:50.702Z,20.11
2022-09-07T18:04:17.297Z,19.90
2022-09-07T18:06:43.760Z,19.77
2022-09-07T18:09:10.832Z,19.56
2022-09-07T18:11:46.254Z,19.26
2022-09-07T18:14:14.598Z,19.27
2022-09-07T18:16:57.761Z,19.03
2022-09-07T18:19:26.193Z,18.95
2022-09-07T18:21:53.654Z,18.92
2022-09-07T18:24:22.883Z,18.65
2022-09-07T18:26:52.738Z,18.70
2022-09-07T18:29:31.220Z,18.35
2022-09-07T18:32:00.417Z,18.25
2022-09-07T18:34:28.634Z,18.43
2022-09-07T18:36:55.346Z,18.50
2022-09-07T18:39:21.971Z,18.48
2022-09-07T18:41:48.345Z,18.39
2022-09-07T18:47:01.121Z,18.15
2022-09-07T18:49:27.555Z,18.23
2022-09-07T18:54:41.396Z,18.32
2022-09-07T18:57:20.998Z,18.15
2022-09-07T18:59:52.031Z,18.04
2022-09-07T19:02:19.857Z,17.95
2022-09-07T19:07:35.760Z,17.76
2022-09-07T19:10:06.134Z,17.93
2022-09-07T19:12:32.537Z,17.85
2022-09-07T19:14:58.916Z,18.08
2022-09-07T19:17:25.345Z,17.80
2022-09-07T19:19:52.748Z,17.64
2022-09-07T19:22:19.133Z,17.93
2022-09-07T19:24:45.795Z,17.86
2022-09-07T19:27:12.275Z,17.82
2022-09-07T19:29:38.983Z,17.85
2022-09-07T19:32:06.622Z,18.06
2022-09-07T19:34:41.787Z,18.15
2022-09-07T19:37:19.361Z,18.11
2022-09-07T19:39:45.949Z,17.98
2022-09-07T19:42:12.397Z,18.01
2022-09-07T19:44:39.887Z,17.99
2022-09-07T19:47:06.942Z,17.99
2022-09-07T19:49:35.509Z,18.05
2022-09-07T19:52:02.135Z,17.82
2022-09-07T19:54:33.857Z,17.72
2022-09-07T19:57:03.747Z,18.02
2022-09-07T19:59:30.285Z,18.02
2022-09-07T20:01:56.746Z,17.84
2022-09-07T20:04:23.581Z,18.04
2022-09-07T20:06:51.418Z,18.30
2022-09-07T20:09:19.789Z,18.48
2022-09-07T20:11:47.792Z,18.21
2022-09-07T20:14:15.291Z,18.15
2022-09-07T20:16:41.979Z,18.18
2022-09-07T20:19:17.271Z,18.65
2022-09-07T20:21:43.684Z,18.71
2022-09-07T20:24:14.366Z,18.77
2022-09-07T20:26:40.855Z,18.93
2022-09-07T20:31:53.946Z,18.40
2022-09-07T20:34:20.610Z,18.19
2022-09-07T20:36:49.556Z,18.14
2022-09-07T20:39:16.812Z,17.63
2022-09-07T20:41:43.179Z,17.65
2022-09-07T20:44:09.731Z,17.61
2022-09-07T20:46:36.375Z,17.76
2022-09-07T20:49:14.062Z,17.67
2022-09-07T20:51:40.533Z,17.61
2022-09-07T20:54:07.202Z,17.41
2022-09-07T20:56:33.656Z,17.37
2022-09-07T20:59:02.435Z,17.50
2022-09-07T21:01:36.630Z,17.45
2022-09-07T21:04:04.092Z,17.23
2022-09-07T21:06:34.623Z,17.16
2022-09-07T21:09:01.537Z,17.17
2022-09-07T21:11:33.965Z,17.18
2022-09-07T21:14:06.205Z,17.36
2022-09-07T21:16:33.696Z,17.01
2022-09-07T21:19:02.366Z,16.77
2022-09-07T21:21:36.628Z,16.87
2022-09-07T21:24:05.823Z,17.05
2022-09-07T21:26:32.717Z,16.95
2022-09-07T21:29:05.042Z,16.77
2022-09-07T21:31:33.731Z,16.99
2022-09-07T21:34:02.097Z,16.79
2022-09-07T21:36:28.520Z,16.50
2022-09-07T21:38:55.791Z,16.64
2022-09-07T21:41:24.258Z,16.97
2022-09-07T21:43:57.757Z,17.17
2022-09-07T21:46:25.257Z,17.13
2022-09-07T21:48:51.680Z,17.08
2022-09-07T21:51:18.446Z,16.99
2022-09-07T21:53:44.845Z,16.81
2022-09-07T21:56:14.272Z,17.20
2022-09-07T21:58:41.387Z,17.12
2022-09-07T22:01:11.182Z,17.03
2022-09-07T22:04:00.080Z,16.81
2022-09-07T22:06:27.830Z,16.56
2022-09-07T22:08:55.737Z,16.93
2022-09-07T22:11:23.821Z,16.97
2022-09-07T22:13:54.519Z,16.97
2022-09-07T22:16:21.042Z,17.03
2022-09-07T22:18:48.376Z,16.81
2022-09-07T22:21:21.248Z,16.95
2022-09-07T22:23:50.371Z,16.67
2022-09-07T22:26:22.191Z,16.62
2022-09-07T22:28:49.133Z,16.36
2022-09-07T22:31:24.337Z,16.23
2022-09-07T22:33:52.376Z,16.38
2022-09-07T22:36:21.355Z,16.18
2022-09-07T22:38:50.693Z,16.10
2022-09-07T22:41:19.335Z,16.07
2022-09-07T22:43:46.989Z,16.24
2022-09-07T22:46:14.813Z,16.13
2022-09-07T22:48:41.833Z,15.99
2022-09-07T22:51:09.618Z,15.92
2022-09-07T22:53:38.374Z,16.19
2022-09-07T22:56:09.606Z,16.08
2022-09-07T22:58:37.266Z,16.27
2022-09-07T23:01:05.134Z,16.23
2022-09-07T23:03:34.629Z,15.98
2022-09-07T23:06:01.623Z,15.67
2022-09-07T23:08:28.157Z,15.85
2022-09-07T23:10:54.682Z,15.88
2022-09-07T23:13:22.233Z,16.03
2022-09-07T23:15:48.893Z,16.22
2022-09-07T23:18:17.620Z,16.10
2022-09-07T23:20:44.452Z,15.83
2022-09-07T23:23:13.254Z,15.99
2022-09-07T23:25:41.258Z,15.85
2022-09-07T23:28:11.886Z,15.78
2022-09-07T23:30:40.519Z,15.77
2022-09-07T23:33:11.922Z,15.72
2022-09-07T23:35:38.320Z,15.74
2022-09-07T23:38:04.934Z,15.68
2022-09-07T23:40:32.639Z,15.68
2022-09-07T23:42:59.515Z,15.88
2022-09-07T23:45:26.245Z,16.16
2022-09-07T23:47:53.073Z,16.10
2022-09-07T23:50:20.017Z,15.92
2022-09-07T23:52:46.435Z,16.27
2022-09-07T23:55:13.275Z,15.93
2022-09-07T23:57:39.706Z,15.68
